Bluff Point, New York
Current Conditions -  °F | °C
As of 3:53 PM on Saturday 22 Nov 2014 (Local Time) from KPEO Reporting Station
Overcast Overcast  
Wind Chill:   Ceiling: 1800
Heat Index:   Visibility: 10mi
Dew Point:   Wind: 17mph
Humidity: 67%   Direction: 220°SW
Pressure: 30.02"   Gusts: 26mph
Location:  42.58°N, 77.128°W
Report Text: KPEO 222053Z AUTO 22015G23KT 10SM OVC018 06/00 A3002 RMK AO2 PK WND 20027/1954 SLP175 T00560000 55019
Loading
Personal Weather Stations






























Interactive Weather Map New forecast layout! Learn more

10-Day Weather Forecast

Advertisements
Track Severe Weather on mobile